createdAt,value
2018-11-27T00:00:13.618Z,16.20
2018-11-27T00:02:41.841Z,17.73
2018-11-27T00:05:10.427Z,15.85
2018-11-27T00:07:38.678Z,16.00
2018-11-27T00:10:09.742Z,18.17
2018-11-27T00:12:38.025Z,16.17
2018-11-27T00:15:09.370Z,16.95
2018-11-27T00:17:37.728Z,16.37
2018-11-27T00:20:09.796Z,19.62
2018-11-27T00:22:38.919Z,17.98
2018-11-27T00:25:10.517Z,18.05
2018-11-27T00:27:39.066Z,19.10
2018-11-27T00:30:11.630Z,16.77
2018-11-27T00:32:40.305Z,15.18
2018-11-27T00:35:09.917Z,15.68
2018-11-27T00:37:38.393Z,17.23
2018-11-27T00:40:10.425Z,16.35
2018-11-27T00:42:38.734Z,17.48
2018-11-27T00:45:09.923Z,18.48
2018-11-27T00:47:38.218Z,16.50
2018-11-27T00:50:11.290Z,15.10
2018-11-27T00:52:39.592Z,17.12
2018-11-27T00:55:09.442Z,18.42
2018-11-27T00:57:38.032Z,17.82
2018-11-27T01:00:11.929Z,17.90
2018-11-27T01:02:40.201Z,17.45
2018-11-27T01:05:11.069Z,16.80
2018-11-27T01:07:39.396Z,16.50
2018-11-27T01:10:09.789Z,16.48
2018-11-27T01:12:38.061Z,17.30
2018-11-27T01:15:07.433Z,17.62
2018-11-27T01:17:35.706Z,18.05
2018-11-27T01:20:04.732Z,15.90
2018-11-27T01:22:32.968Z,16.57
2018-11-27T01:25:01.197Z,15.38
2018-11-27T01:27:29.439Z,16.80
2018-11-27T01:29:57.681Z,18.40
2018-11-27T01:32:25.974Z,16.85
2018-11-27T01:34:54.257Z,16.82
2018-11-27T01:37:22.530Z,17.42
2018-11-27T01:39:50.786Z,15.72
2018-11-27T01:42:19.028Z,16.27
2018-11-27T01:44:47.253Z,15.38
2018-11-27T01:47:15.571Z,16.10
2018-11-27T01:49:43.806Z,17.62
2018-11-27T01:52:12.044Z,16.77
2018-11-27T01:54:40.255Z,16.15
2018-11-27T01:57:08.531Z,15.80
2018-11-27T01:59:36.782Z,15.08
2018-11-27T02:02:05.434Z,17.20
2018-11-27T02:04:33.666Z,17.23
2018-11-27T02:07:01.902Z,16.40
2018-11-27T02:09:30.159Z,16.02
2018-11-27T02:11:58.405Z,17.40
2018-11-27T02:14:26.634Z,16.42
2018-11-27T02:16:54.839Z,16.05
2018-11-27T02:19:23.069Z,15.45
2018-11-27T02:21:51.257Z,15.43
2018-11-27T02:24:19.456Z,15.70
2018-11-27T02:26:47.628Z,14.85
2018-11-27T02:29:22.284Z,15.25
2018-11-27T02:31:50.574Z,14.10
2018-11-27T02:34:18.777Z,15.85
2018-11-27T02:36:46.981Z,14.55
2018-11-27T02:39:15.207Z,15.83
2018-11-27T02:41:43.403Z,16.30
2018-11-27T02:44:11.594Z,16.42
2018-11-27T02:46:39.786Z,16.85
2018-11-27T02:49:08.038Z,15.32
2018-11-27T02:51:36.307Z,15.85
2018-11-27T02:54:04.581Z,16.02
2018-11-27T02:56:32.896Z,16.90
2018-11-27T02:59:01.118Z,15.93
2018-11-27T03:01:29.305Z,14.43
2018-11-27T03:03:57.575Z,15.18
2018-11-27T03:06:25.840Z,16.50
2018-11-27T03:08:54.056Z,15.60
2018-11-27T03:11:22.232Z,16.27
2018-11-27T03:13:50.421Z,16.67
2018-11-27T03:16:18.633Z,16.77
2018-11-27T03:18:46.873Z,15.72
2018-11-27T03:21:15.088Z,15.45
2018-11-27T03:23:43.296Z,16.02
2018-11-27T03:26:11.493Z,14.20
2018-11-27T03:28:39.677Z,15.38
2018-11-27T03:31:07.911Z,16.12
2018-11-27T03:33:36.153Z,15.15
2018-11-27T03:36:04.409Z,14.23
2018-11-27T03:38:32.683Z,15.25
2018-11-27T03:41:00.884Z,14.78
2018-11-27T03:43:29.113Z,21.40
2018-11-27T03:45:57.334Z,16.45
2018-11-27T03:48:25.545Z,14.87
2018-11-27T03:50:53.800Z,16.17
2018-11-27T03:53:22.060Z,16.00
2018-11-27T03:55:50.309Z,13.60
2018-11-27T03:58:18.505Z,12.58
2018-11-27T04:00:46.737Z,14.00
2018-11-27T04:03:14.965Z,13.78
2018-11-27T04:05:43.400Z,14.30
2018-11-27T04:08:11.624Z,13.03
2018-11-27T04:10:40.863Z,12.35
2018-11-27T04:13:09.104Z,13.18
2018-11-27T04:15:37.325Z,12.00
2018-11-27T04:18:05.614Z,13.22
2018-11-27T04:20:33.885Z,12.18
2018-11-27T04:23:02.110Z,12.13
2018-11-27T04:25:30.360Z,11.40
2018-11-27T04:27:58.562Z,11.65
2018-11-27T04:30:26.789Z,11.75
2018-11-27T04:32:55.035Z,11.80
2018-11-27T04:35:23.289Z,13.10
2018-11-27T04:37:51.508Z,12.88
2018-11-27T04:40:20.795Z,13.70
2018-11-27T04:42:49.040Z,11.20
2018-11-27T04:45:20.081Z,13.38
2018-11-27T04:47:48.353Z,12.23
2018-11-27T04:50:17.325Z,13.50
2018-11-27T04:52:45.635Z,12.90
2018-11-27T04:55:14.891Z,13.98
2018-11-27T04:57:43.666Z,11.12
2018-11-27T05:00:13.780Z,11.75
2018-11-27T05:02:42.583Z,12.90
2018-11-27T05:05:11.102Z,12.98
2018-11-27T05:07:39.421Z,13.05
2018-11-27T05:10:10.217Z,14.83
2018-11-27T05:12:38.796Z,11.80
2018-11-27T05:15:10.250Z,10.43
2018-11-27T05:17:38.529Z,12.75
2018-11-27T05:20:08.208Z,12.43
2018-11-27T05:22:36.710Z,11.63
2018-11-27T05:25:06.688Z,12.53
2018-11-27T05:27:34.970Z,12.33
2018-11-27T05:30:04.050Z,12.80
2018-11-27T05:32:32.577Z,12.23
2018-11-27T05:35:00.808Z,11.68
2018-11-27T05:37:29.075Z,11.80
2018-11-27T05:39:57.411Z,12.85
2018-11-27T05:42:25.713Z,12.65
2018-11-27T05:44:53.961Z,13.03
2018-11-27T05:47:22.546Z,12.75
2018-11-27T05:49:50.753Z,16.35
2018-11-27T05:52:18.991Z,17.37
2018-11-27T05:54:47.176Z,11.97
2018-11-27T05:57:15.448Z,11.80
2018-11-27T05:59:43.741Z,13.30
2018-11-27T06:02:11.989Z,12.33
2018-11-27T06:04:40.241Z,10.63
2018-11-27T06:07:08.505Z,12.50
2018-11-27T06:09:36.717Z,12.15
2018-11-27T06:12:05.300Z,10.05
2018-11-27T06:14:33.509Z,11.88
2018-11-27T06:17:01.730Z,11.55
2018-11-27T06:19:29.973Z,11.15
2018-11-27T06:21:58.202Z,10.70
2018-11-27T06:24:26.440Z,11.12
2018-11-27T06:26:54.684Z,10.40
2018-11-27T06:29:22.901Z,10.98
2018-11-27T06:31:51.136Z,10.78
2018-11-27T06:34:19.463Z,8.58
2018-11-27T06:36:47.712Z,10.75
2018-11-27T06:39:15.932Z,9.50
2018-11-27T06:41:44.291Z,16.50
2018-11-27T06:44:12.516Z,11.93
2018-11-27T06:46:40.734Z,10.03
2018-11-27T06:49:09.057Z,10.40
2018-11-27T06:51:37.328Z,10.85
2018-11-27T06:54:07.046Z,10.08
2018-11-27T06:56:35.277Z,10.35
2018-11-27T06:59:03.718Z,9.75
2018-11-27T07:01:32.024Z,8.90
2018-11-27T07:04:00.235Z,9.53
2018-11-27T07:06:28.476Z,12.03
2018-11-27T07:08:56.705Z,10.30
2018-11-27T07:11:24.958Z,10.10
2018-11-27T07:13:53.181Z,9.23
2018-11-27T07:16:21.397Z,10.35
2018-11-27T07:18:49.657Z,11.70
2018-11-27T07:21:17.872Z,9.13
2018-11-27T07:23:46.087Z,9.75
2018-11-27T07:26:14.312Z,11.60
2018-11-27T07:28:42.559Z,9.28
2018-11-27T07:31:10.810Z,9.85
2018-11-27T07:33:39.060Z,9.85
2018-11-27T07:36:08.212Z,10.25
2018-11-27T07:38:35.553Z,10.58
2018-11-27T07:41:03.823Z,10.50
2018-11-27T07:43:32.076Z,8.75
2018-11-27T07:46:00.260Z,9.73
2018-11-27T07:48:28.529Z,8.65
2018-11-27T07:50:56.829Z,8.45
2018-11-27T07:53:25.068Z,9.40
2018-11-27T07:55:53.317Z,17.95
2018-11-27T07:58:21.633Z,9.50
2018-11-27T08:00:49.861Z,11.18
2018-11-27T08:03:18.201Z,9.35
2018-11-27T08:05:46.432Z,10.03
2018-11-27T08:08:16.312Z,8.63
2018-11-27T08:10:45.739Z,9.08
2018-11-27T08:13:14.644Z,10.32
2018-11-27T08:15:43.036Z,9.05
2018-11-27T08:18:12.013Z,8.90
2018-11-27T08:20:40.425Z,9.33
2018-11-27T08:23:09.832Z,9.83
2018-11-27T08:25:38.249Z,10.05
2018-11-27T08:28:07.236Z,9.45
2018-11-27T08:30:35.613Z,9.60
2018-11-27T08:33:03.923Z,8.40
2018-11-27T08:35:32.164Z,9.08
2018-11-27T08:38:07.401Z,9.43
2018-11-27T08:40:35.765Z,8.53
2018-11-27T08:43:04.118Z,9.60
2018-11-27T08:45:32.371Z,9.28
2018-11-27T08:48:00.583Z,9.48
2018-11-27T08:50:28.847Z,9.88
2018-11-27T08:53:01.397Z,9.85
2018-11-27T08:55:42.710Z,9.90
2018-11-27T08:58:13.774Z,8.90
2018-11-27T09:00:42.021Z,10.23
2018-11-27T09:03:10.321Z,9.23
2018-11-27T09:05:38.576Z,10.15
2018-11-27T09:08:07.121Z,8.38
2018-11-27T09:10:35.856Z,9.85
2018-11-27T09:13:04.348Z,10.60
2018-11-27T09:15:32.821Z,9.35
2018-11-27T09:18:10.090Z,10.93
2018-11-27T09:20:38.358Z,9.25
2018-11-27T09:23:06.907Z,10.15
2018-11-27T09:25:35.246Z,10.38
2018-11-27T09:28:03.490Z,11.80
2018-11-27T09:30:31.855Z,11.88
2018-11-27T09:33:00.108Z,10.18
2018-11-27T09:35:28.326Z,10.38
2018-11-27T09:37:56.597Z,9.58
2018-11-27T09:40:24.833Z,10.20
2018-11-27T09:42:53.069Z,9.25
2018-11-27T09:45:24.372Z,9.03
2018-11-27T09:47:54.726Z,10.85
2018-11-27T09:50:23.045Z,9.88
2018-11-27T09:52:51.350Z,9.58
2018-11-27T09:55:20.624Z,10.10
2018-11-27T09:57:48.972Z,9.68
2018-11-27T10:00:28.853Z,10.20
2018-11-27T10:02:58.356Z,8.43
2018-11-27T10:05:26.717Z,8.28
2018-11-27T10:07:54.931Z,8.60
2018-11-27T10:10:24.217Z,8.85
2018-11-27T10:12:52.645Z,8.40
2018-11-27T10:15:22.974Z,8.25
2018-11-27T10:17:56.551Z,9.88
2018-11-27T10:20:26.113Z,10.15
2018-11-27T10:22:54.423Z,8.40
2018-11-27T10:25:22.749Z,8.25
2018-11-27T10:27:51.265Z,10.45
2018-11-27T10:30:22.109Z,8.40
2018-11-27T10:32:51.615Z,9.95
2018-11-27T10:35:28.519Z,9.63
2018-11-27T10:37:56.748Z,7.75
2018-11-27T10:40:25.027Z,7.85
2018-11-27T10:42:53.636Z,9.03
2018-11-27T10:45:22.786Z,9.48
2018-11-27T10:47:52.239Z,8.95
2018-11-27T10:50:20.452Z,8.65
2018-11-27T10:52:50.953Z,9.38
2018-11-27T10:55:19.748Z,9.43
2018-11-27T10:57:48.147Z,9.73
2018-11-27T11:00:25.768Z,9.38
2018-11-27T11:02:59.425Z,9.63
2018-11-27T11:05:32.957Z,9.48
2018-11-27T11:08:01.235Z,9.00
2018-11-27T11:10:29.772Z,9.15
2018-11-27T11:12:58.313Z,9.55
2018-11-27T11:15:26.661Z,8.48
2018-11-27T11:17:54.917Z,9.53
2018-11-27T11:20:23.688Z,8.38
2018-11-27T11:22:51.996Z,9.70
2018-11-27T11:25:22.847Z,9.60
2018-11-27T11:27:52.765Z,10.00
2018-11-27T11:30:21.806Z,8.93
2018-11-27T11:32:50.144Z,9.43
2018-11-27T11:35:18.563Z,8.95
2018-11-27T11:37:46.785Z,9.35
2018-11-27T11:40:17.929Z,8.73
2018-11-27T11:42:46.491Z,9.13
2018-11-27T11:45:14.930Z,7.75
2018-11-27T11:47:43.309Z,7.95
2018-11-27T11:50:14.077Z,8.03
2018-11-27T11:52:45.516Z,7.92
2018-11-27T11:55:14.204Z,8.30
2018-11-27T11:57:44.219Z,8.05
2018-11-27T12:00:20.589Z,7.55
2018-11-27T12:02:48.893Z,8.58
2018-11-27T12:05:17.130Z,6.97
2018-11-27T12:07:45.439Z,7.78
2018-11-27T12:10:15.659Z,8.68
2018-11-27T12:12:45.024Z,7.50
2018-11-27T12:15:14.377Z,7.35
2018-11-27T12:17:43.550Z,7.33
2018-11-27T12:20:14.700Z,7.12
2018-11-27T12:22:50.820Z,6.50
2018-11-27T12:25:23.963Z,5.78
2018-11-27T12:27:50.453Z,5.47
2018-11-27T12:30:20.049Z,7.05
2018-11-27T12:32:48.337Z,7.12
2018-11-27T12:35:17.205Z,6.35
2018-11-27T12:37:45.504Z,7.35
2018-11-27T12:40:20.616Z,6.50
2018-11-27T12:42:49.017Z,6.20
2018-11-27T12:45:22.861Z,6.60
2018-11-27T12:47:51.530Z,6.22
2018-11-27T12:50:24.151Z,6.72
2018-11-27T12:52:52.394Z,7.78
2018-11-27T12:55:22.602Z,7.72
2018-11-27T12:57:50.852Z,7.60
2018-11-27T13:00:20.442Z,8.13
2018-11-27T13:02:48.969Z,7.95
2018-11-27T13:05:20.055Z,8.05
2018-11-27T13:07:48.329Z,7.90
2018-11-27T13:10:17.091Z,7.55
2018-11-27T13:12:46.297Z,7.87
2018-11-27T13:15:16.493Z,8.05
2018-11-27T13:17:44.927Z,6.83
2018-11-27T13:20:14.315Z,7.28
2018-11-27T13:22:43.462Z,7.92
2018-11-27T13:25:13.225Z,7.25
2018-11-27T13:27:41.556Z,6.10
2018-11-27T13:30:12.643Z,6.58
2018-11-27T13:32:41.021Z,7.10
2018-11-27T13:35:11.456Z,6.15
2018-11-27T13:37:39.852Z,7.55
2018-11-27T13:40:09.690Z,6.80
2018-11-27T13:42:38.001Z,6.45
2018-11-27T13:45:10.448Z,7.28
2018-11-27T13:47:38.705Z,7.95
2018-11-27T13:50:14.752Z,6.92
2018-11-27T13:52:43.124Z,7.30
2018-11-27T13:55:16.758Z,8.03
2018-11-27T13:57:45.108Z,8.88
2018-11-27T14:00:14.844Z,7.72
2018-11-27T14:02:44.489Z,8.15
2018-11-27T14:05:15.258Z,8.63
2018-11-27T14:07:43.596Z,8.30
2018-11-27T14:10:12.334Z,8.20
2018-11-27T14:12:40.599Z,8.38
2018-11-27T14:15:13.559Z,9.03
2018-11-27T14:17:41.999Z,9.33
2018-11-27T14:20:10.252Z,8.88
2018-11-27T14:22:38.575Z,8.95
2018-11-27T14:25:08.873Z,9.30
2018-11-27T14:27:37.153Z,8.80
2018-11-27T14:30:24.869Z,9.58
2018-11-27T14:32:53.550Z,9.03
2018-11-27T14:35:22.875Z,9.65
2018-11-27T14:37:52.399Z,8.68
2018-11-27T14:40:26.321Z,9.20
2018-11-27T14:42:54.524Z,8.45
2018-11-27T14:45:24.181Z,8.80
2018-11-27T14:47:56.710Z,7.95
2018-11-27T14:50:24.996Z,8.15
2018-11-27T14:52:53.243Z,8.68
2018-11-27T14:55:23.201Z,9.95
2018-11-27T14:57:51.457Z,9.85
2018-11-27T15:00:21.020Z,9.48
2018-11-27T15:02:49.272Z,10.30
2018-11-27T15:05:21.466Z,10.60
2018-11-27T15:07:56.451Z,10.25
2018-11-27T15:10:24.840Z,10.43
2018-11-27T15:12:53.639Z,9.90
2018-11-27T15:15:22.227Z,15.13
2018-11-27T15:17:50.542Z,12.10
2018-11-27T15:20:19.723Z,11.78
2018-11-27T15:22:48.032Z,10.38
2018-11-27T15:25:16.416Z,9.40
2018-11-27T15:27:44.714Z,9.63
2018-11-27T15:30:18.265Z,10.85
2018-11-27T15:32:46.532Z,9.10
2018-11-27T15:35:14.916Z,12.30
2018-11-27T15:37:43.202Z,10.65
2018-11-27T15:40:14.752Z,11.48
2018-11-27T15:42:43.133Z,10.68
2018-11-27T15:45:13.831Z,9.25
2018-11-27T15:47:42.152Z,10.40
2018-11-27T15:50:10.723Z,11.55
2018-11-27T15:52:39.082Z,11.30
2018-11-27T15:55:20.206Z,11.25
2018-11-27T15:57:50.791Z,11.22
2018-11-27T16:00:20.427Z,13.43
2018-11-27T16:02:48.664Z,11.73
2018-11-27T16:05:17.362Z,11.50
2018-11-27T16:07:45.657Z,13.10
2018-11-27T16:10:15.066Z,14.90
2018-11-27T16:12:43.365Z,15.60
2018-11-27T16:15:12.714Z,14.90
2018-11-27T16:17:41.107Z,13.93
2018-11-27T16:20:14.887Z,15.35
2018-11-27T16:22:42.544Z,12.60
2018-11-27T16:25:12.613Z,11.50
2018-11-27T16:27:41.116Z,11.85
2018-11-27T16:30:12.609Z,13.15
2018-11-27T16:32:40.936Z,11.97
2018-11-27T16:35:10.076Z,11.70
2018-11-27T16:37:38.513Z,10.40
2018-11-27T16:40:10.812Z,11.45
2018-11-27T16:42:39.117Z,11.22
2018-11-27T16:45:10.166Z,9.60
2018-11-27T16:47:38.518Z,12.73
2018-11-27T16:50:08.174Z,11.00
2018-11-27T16:52:36.444Z,12.18
2018-11-27T16:55:05.173Z,11.08
2018-11-27T16:57:33.433Z,11.45
2018-11-27T17:00:01.808Z,11.35
2018-11-27T17:02:30.113Z,11.00
2018-11-27T17:04:58.500Z,11.85
2018-11-27T17:07:26.739Z,11.88
2018-11-27T17:09:54.937Z,12.40
2018-11-27T17:12:23.171Z,12.28
2018-11-27T17:14:51.738Z,11.70
2018-11-27T17:17:20.080Z,12.82
2018-11-27T17:19:48.377Z,13.30
2018-11-27T17:22:16.681Z,14.05
2018-11-27T17:24:45.165Z,13.88
2018-11-27T17:27:13.505Z,12.80
2018-11-27T17:29:41.918Z,15.40
2018-11-27T17:32:10.177Z,13.15
2018-11-27T17:34:38.514Z,13.72
2018-11-27T17:37:06.819Z,14.05
2018-11-27T17:39:35.101Z,15.83
2018-11-27T17:42:03.364Z,13.95
2018-11-27T17:44:31.661Z,14.78
2018-11-27T17:46:59.918Z,15.25
2018-11-27T17:49:28.205Z,14.03
2018-11-27T17:51:56.543Z,15.72
2018-11-27T17:54:24.829Z,15.00
2018-11-27T17:56:53.037Z,14.23
2018-11-27T17:59:21.276Z,14.50
2018-11-27T18:01:49.485Z,14.18
2018-11-27T18:04:17.724Z,15.10
2018-11-27T18:06:46.144Z,13.58
2018-11-27T18:09:15.813Z,15.23
2018-11-27T18:11:44.431Z,14.85
2018-11-27T18:14:12.772Z,14.43
2018-11-27T18:16:41.361Z,14.78
2018-11-27T18:19:09.773Z,15.10
2018-11-27T18:21:38.053Z,14.13
2018-11-27T18:24:06.325Z,16.32
2018-11-27T18:26:34.602Z,14.20
2018-11-27T18:29:02.864Z,14.75
2018-11-27T18:31:31.124Z,13.90
2018-11-27T18:33:59.431Z,13.98
2018-11-27T18:36:27.656Z,14.40
2018-11-27T18:38:55.916Z,15.23
2018-11-27T18:41:24.300Z,13.95
2018-11-27T18:43:52.533Z,14.47
2018-11-27T18:46:20.897Z,13.60
2018-11-27T18:48:49.244Z,14.15
2018-11-27T18:51:17.525Z,13.53
2018-11-27T18:53:45.736Z,13.58
2018-11-27T18:56:14.095Z,14.10
2018-11-27T18:58:42.377Z,13.58
2018-11-27T19:01:10.625Z,15.15
2018-11-27T19:03:38.929Z,14.90
2018-11-27T19:06:07.393Z,15.08
2018-11-27T19:08:35.789Z,14.45
2018-11-27T19:11:04.042Z,14.30
2018-11-27T19:13:33.075Z,14.28
2018-11-27T19:16:01.307Z,14.98
2018-11-27T19:18:29.565Z,14.18
2018-11-27T19:20:57.869Z,15.20
2018-11-27T19:23:26.505Z,14.87
2018-11-27T19:25:54.732Z,13.98
2018-11-27T19:28:23.308Z,14.30
2018-11-27T19:30:51.928Z,14.03
2018-11-27T19:33:20.235Z,14.50
2018-11-27T19:35:48.455Z,13.25
2018-11-27T19:38:18.086Z,13.93
2018-11-27T19:40:46.362Z,13.70
2018-11-27T19:43:14.935Z,14.68
2018-11-27T19:45:43.226Z,12.65
2018-11-27T19:48:12.705Z,14.13
2018-11-27T19:50:40.986Z,12.28
2018-11-27T19:53:12.111Z,13.72
2018-11-27T19:55:39.975Z,14.13
2018-11-27T19:58:09.077Z,14.55
2018-11-27T20:00:38.104Z,15.80
2018-11-27T20:03:08.109Z,15.65
2018-11-27T20:05:36.352Z,15.95
2018-11-27T20:08:05.273Z,13.95
2018-11-27T20:10:33.500Z,16.95
2018-11-27T20:13:01.717Z,14.60
2018-11-27T20:15:30.101Z,15.18
2018-11-27T20:17:58.441Z,14.05
2018-11-27T20:20:27.714Z,14.25
2018-11-27T20:22:57.083Z,15.35
2018-11-27T20:25:25.594Z,12.70
2018-11-27T20:27:53.937Z,13.83
2018-11-27T20:30:25.008Z,15.15
2018-11-27T20:32:57.390Z,14.90
2018-11-27T20:35:25.972Z,14.10
2018-11-27T20:37:54.828Z,17.45
2018-11-27T20:40:23.026Z,14.78
2018-11-27T20:42:51.271Z,14.83
2018-11-27T20:45:20.638Z,14.53
2018-11-27T20:47:55.377Z,15.48
2018-11-27T20:50:23.681Z,15.00
2018-11-27T20:52:52.062Z,14.80
2018-11-27T20:55:20.984Z,15.83
2018-11-27T20:57:58.896Z,16.55
2018-11-27T21:00:43.301Z,17.10
2018-11-27T21:03:12.121Z,15.40
2018-11-27T21:05:40.349Z,15.72
2018-11-27T21:08:09.425Z,16.12
2018-11-27T21:10:38.076Z,17.55
2018-11-27T21:13:07.272Z,16.95
2018-11-27T21:15:35.696Z,15.05
2018-11-27T21:18:03.958Z,13.88
2018-11-27T21:20:32.171Z,13.85
2018-11-27T21:23:00.429Z,13.95
2018-11-27T21:25:28.683Z,13.98
2018-11-27T21:28:04.841Z,14.55
2018-11-27T21:30:33.082Z,13.75
2018-11-27T21:33:01.296Z,14.80
2018-11-27T21:35:29.553Z,16.07
2018-11-27T21:37:57.823Z,14.50
2018-11-27T21:40:26.024Z,15.00
2018-11-27T21:42:54.293Z,16.12
2018-11-27T21:45:25.453Z,15.58
2018-11-27T21:47:54.336Z,15.75
2018-11-27T21:50:28.833Z,15.75
2018-11-27T21:52:57.990Z,15.10
2018-11-27T21:55:26.411Z,15.75
2018-11-27T21:57:54.650Z,16.77
2018-11-27T22:00:24.097Z,15.48
2018-11-27T22:02:52.423Z,18.80
2018-11-27T22:05:20.653Z,17.87
2018-11-27T22:07:48.908Z,16.73
2018-11-27T22:10:20.547Z,17.73
2018-11-27T22:12:52.937Z,18.77
2018-11-27T22:15:38.244Z,19.45
2018-11-27T22:18:07.525Z,18.30
2018-11-27T22:20:35.764Z,19.25
2018-11-27T22:23:04.235Z,19.27
2018-11-27T22:25:32.474Z,19.23
2018-11-27T22:28:00.800Z,20.55
2018-11-27T22:30:29.069Z,18.70
2018-11-27T22:32:57.353Z,21.23
2018-11-27T22:35:25.708Z,20.80
2018-11-27T22:37:54.107Z,19.15
2018-11-27T22:40:24.755Z,24.43
2018-11-27T22:42:53.544Z,22.67
2018-11-27T22:45:37.873Z,22.40
2018-11-27T22:48:07.350Z,21.12
2018-11-27T22:50:35.591Z,19.25
2018-11-27T22:53:04.030Z,20.62
2018-11-27T22:55:32.239Z,20.08
2018-11-27T22:58:00.655Z,20.62
2018-11-27T23:00:34.586Z,19.15
2018-11-27T23:03:02.888Z,19.10
2018-11-27T23:05:31.136Z,16.62
2018-11-27T23:07:59.377Z,17.60
2018-11-27T23:10:34.015Z,20.55
2018-11-27T23:13:02.298Z,17.90
2018-11-27T23:15:30.515Z,17.10
2018-11-27T23:17:58.770Z,18.75
2018-11-27T23:20:27.036Z,17.50
2018-11-27T23:22:55.316Z,16.75
2018-11-27T23:25:23.523Z,18.25
2018-11-27T23:27:51.732Z,18.77
2018-11-27T23:30:26.429Z,16.90
2018-11-27T23:32:54.663Z,14.73
2018-11-27T23:35:22.865Z,16.50
2018-11-27T23:37:51.149Z,16.00
2018-11-27T23:40:20.561Z,14.30
2018-11-27T23:42:48.919Z,16.87
2018-11-27T23:45:19.555Z,15.72
2018-11-27T23:47:47.827Z,16.48
2018-11-27T23:50:18.277Z,17.32
2018-11-27T23:52:46.668Z,14.55
2018-11-27T23:55:15.850Z,18.23
2018-11-27T23:57:44.370Z,16.40
